sensor_id;sensor_type;location;lat;lon;timestamp;temperature;humidity
8565;DHT22;4320;51.498;6.556;2023-02-15T00:00:16;6.50;1.00
8565;DHT22;4320;51.498;6.556;2023-02-15T00:02:41;6.50;1.00
8565;DHT22;4320;51.498;6.556;2023-02-15T00:05:07;6.40;1.00
8565;DHT22;4320;51.498;6.556;2023-02-15T00:07:33;6.50;1.00
8565;DHT22;4320;51.498;6.556;2023-02-15T00:09:59;6.40;1.00
8565;DHT22;4320;51.498;6.556;2023-02-15T00:12:24;6.40;1.00
8565;DHT22;4320;51.498;6.556;2023-02-15T00:14:50;6.40;1.00
8565;DHT22;4320;51.498;6.556;2023-02-15T00:17:16;6.40;1.00
8565;DHT22;4320;51.498;6.556;2023-02-15T00:19:41;6.50;1.00
8565;DHT22;4320;51.498;6.556;2023-02-15T00:22:07;6.50;1.00
8565;DHT22;4320;51.498;6.556;2023-02-15T00:24:33;6.40;1.00
8565;DHT22;4320;51.498;6.556;2023-02-15T00:26:58;6.40;1.00
8565;DHT22;4320;51.498;6.556;2023-02-15T00:29:24;6.40;1.00
8565;DHT22;4320;51.498;6.556;2023-02-15T00:31:50;6.30;1.00
8565;DHT22;4320;51.498;6.556;2023-02-15T00:34:20;6.30;1.00
8565;DHT22;4320;51.498;6.556;2023-02-15T00:36:46;6.20;1.00
8565;DHT22;4320;51.498;6.556;2023-02-15T00:39:12;6.20;1.00
8565;DHT22;4320;51.498;6.556;2023-02-15T00:41:38;6.10;1.00
8565;DHT22;4320;51.498;6.556;2023-02-15T00:44:05;6.10;1.00
8565;DHT22;4320;51.498;6.556;2023-02-15T00:46:30;6.10;1.00
8565;DHT22;4320;51.498;6.556;2023-02-15T00:48:56;6.10;1.00
8565;DHT22;4320;51.498;6.556;2023-02-15T00:51:22;6.00;1.00
8565;DHT22;4320;51.498;6.556;2023-02-15T00:53:48;6.00;1.00
8565;DHT22;4320;51.498;6.556;2023-02-15T00:56:14;6.00;1.00
8565;DHT22;4320;51.498;6.556;2023-02-15T00:58:40;6.00;1.00
8565;DHT22;4320;51.498;6.556;2023-02-15T01:01:15;6.00;1.00
8565;DHT22;4320;51.498;6.556;2023-02-15T01:03:42;6.00;1.00
8565;DHT22;4320;51.498;6.556;2023-02-15T01:06:09;6.00;1.00
8565;DHT22;4320;51.498;6.556;2023-02-15T01:08:34;5.90;1.00
8565;DHT22;4320;51.498;6.556;2023-02-15T01:11:05;5.90;1.00
8565;DHT22;4320;51.498;6.556;2023-02-15T01:13:31;5.90;1.00
8565;DHT22;4320;51.498;6.556;2023-02-15T01:15:57;5.90;1.70
8565;DHT22;4320;51.498;6.556;2023-02-15T01:18:23;5.90;1.70
8565;DHT22;4320;51.498;6.556;2023-02-15T01:20:49;5.90;1.20
8565;DHT22;4320;51.498;6.556;2023-02-15T01:23:15;5.90;1.00
8565;DHT22;4320;51.498;6.556;2023-02-15T01:25:41;5.90;1.00
8565;DHT22;4320;51.498;6.556;2023-02-15T01:28:06;5.90;1.00
8565;DHT22;4320;51.498;6.556;2023-02-15T01:30:32;5.80;1.00
8565;DHT22;4320;51.498;6.556;2023-02-15T01:32:58;5.80;1.30
8565;DHT22;4320;51.498;6.556;2023-02-15T01:35:26;5.80;1.00
8565;DHT22;4320;51.498;6.556;2023-02-15T01:37:52;5.80;2.80
8565;DHT22;4320;51.498;6.556;2023-02-15T01:40:18;5.70;2.70
8565;DHT22;4320;51.498;6.556;2023-02-15T01:42:44;5.70;2.70
8565;DHT22;4320;51.498;6.556;2023-02-15T01:45:26;5.80;3.10
8565;DHT22;4320;51.498;6.556;2023-02-15T01:47:56;5.70;3.80
8565;DHT22;4320;51.498;6.556;2023-02-15T01:50:33;5.60;4.50
8565;DHT22;4320;51.498;6.556;2023-02-15T01:53:20;5.60;5.70
8565;DHT22;4320;51.498;6.556;2023-02-15T01:55:59;5.50;6.70
8565;DHT22;4320;51.498;6.556;2023-02-15T01:58:28;5.50;6.00
8565;DHT22;4320;51.498;6.556;2023-02-15T02:00:59;5.50;7.40
8565;DHT22;4320;51.498;6.556;2023-02-15T02:03:48;5.50;8.70
8565;DHT22;4320;51.498;6.556;2023-02-15T02:06:15;5.50;9.10
8565;DHT22;4320;51.498;6.556;2023-02-15T02:08:41;5.50;9.30
8565;DHT22;4320;51.498;6.556;2023-02-15T02:11:11;5.50;9.10
8565;DHT22;4320;51.498;6.556;2023-02-15T02:13:38;5.50;8.70
8565;DHT22;4320;51.498;6.556;2023-02-15T02:33:32;5.40;10.50
8565;DHT22;4320;51.498;6.556;2023-02-15T02:36:13;5.40;11.50
8565;DHT22;4320;51.498;6.556;2023-02-15T02:39:03;5.30;10.60
8565;DHT22;4320;51.498;6.556;2023-02-15T02:41:53;5.30;11.50
8565;DHT22;4320;51.498;6.556;2023-02-15T02:44:41;5.20;13.30
8565;DHT22;4320;51.498;6.556;2023-02-15T02:47:22;5.20;16.10
8565;DHT22;4320;51.498;6.556;2023-02-15T02:49:52;5.20;16.40
8565;DHT22;4320;51.498;6.556;2023-02-15T02:58:17;5.20;18.30
8565;DHT22;4320;51.498;6.556;2023-02-15T03:01:18;5.20;18.00
8565;DHT22;4320;51.498;6.556;2023-02-15T03:03:44;5.20;19.40
8565;DHT22;4320;51.498;6.556;2023-02-15T03:06:13;5.20;20.00
8565;DHT22;4320;51.498;6.556;2023-02-15T03:08:48;5.20;19.00
8565;DHT22;4320;51.498;6.556;2023-02-15T03:11:15;5.20;19.80
8565;DHT22;4320;51.498;6.556;2023-02-15T03:13:41;5.20;20.70
8565;DHT22;4320;51.498;6.556;2023-02-15T03:16:09;5.20;20.60
8565;DHT22;4320;51.498;6.556;2023-02-15T03:21:47;5.10;20.30
8565;DHT22;4320;51.498;6.556;2023-02-15T03:24:18;5.20;20.80
8565;DHT22;4320;51.498;6.556;2023-02-15T03:26:47;5.10;21.90
8565;DHT22;4320;51.498;6.556;2023-02-15T03:29:15;5.10;21.20
8565;DHT22;4320;51.498;6.556;2023-02-15T03:31:43;5.00;21.50
8565;DHT22;4320;51.498;6.556;2023-02-15T03:34:12;5.10;23.80
8565;DHT22;4320;51.498;6.556;2023-02-15T03:39:32;5.00;23.50
8565;DHT22;4320;51.498;6.556;2023-02-15T03:42:09;5.00;25.00
8565;DHT22;4320;51.498;6.556;2023-02-15T03:45:11;5.00;24.00
8565;DHT22;4320;51.498;6.556;2023-02-15T03:47:43;5.00;24.60
8565;DHT22;4320;51.498;6.556;2023-02-15T03:50:18;5.00;25.30
8565;DHT22;4320;51.498;6.556;2023-02-15T03:53:06;5.00;26.70
8565;DHT22;4320;51.498;6.556;2023-02-15T03:55:34;5.00;26.10
8565;DHT22;4320;51.498;6.556;2023-02-15T03:57:59;5.00;26.10
8565;DHT22;4320;51.498;6.556;2023-02-15T04:01:05;5.00;27.60
8565;DHT22;4320;51.498;6.556;2023-02-15T04:04:03;4.90;28.00
8565;DHT22;4320;51.498;6.556;2023-02-15T04:06:30;4.90;28.70
8565;DHT22;4320;51.498;6.556;2023-02-15T04:08:56;4.90;29.70
8565;DHT22;4320;51.498;6.556;2023-02-15T04:11:40;4.90;30.00
8565;DHT22;4320;51.498;6.556;2023-02-15T04:14:06;4.90;29.60
8565;DHT22;4320;51.498;6.556;2023-02-15T04:16:50;4.90;29.20
8565;DHT22;4320;51.498;6.556;2023-02-15T04:19:16;4.90;30.00
8565;DHT22;4320;51.498;6.556;2023-02-15T04:22:00;4.90;29.60
8565;DHT22;4320;51.498;6.556;2023-02-15T04:24:44;4.90;29.00
8565;DHT22;4320;51.498;6.556;2023-02-15T04:27:28;4.90;30.70
8565;DHT22;4320;51.498;6.556;2023-02-15T04:29:54;4.80;31.60
8565;DHT22;4320;51.498;6.556;2023-02-15T04:32:19;4.80;31.70
8565;DHT22;4320;51.498;6.556;2023-02-15T04:34:45;4.80;33.00
8565;DHT22;4320;51.498;6.556;2023-02-15T04:37:10;4.90;32.50
8565;DHT22;4320;51.498;6.556;2023-02-15T04:39:36;4.80;31.30
8565;DHT22;4320;51.498;6.556;2023-02-15T04:42:02;4.80;32.90
8565;DHT22;4320;51.498;6.556;2023-02-15T04:44:27;4.70;34.00
8565;DHT22;4320;51.498;6.556;2023-02-15T04:46:53;4.80;35.70
8565;DHT22;4320;51.498;6.556;2023-02-15T04:49:20;4.70;34.40
8565;DHT22;4320;51.498;6.556;2023-02-15T04:51:45;4.70;37.20
8565;DHT22;4320;51.498;6.556;2023-02-15T04:54:11;4.70;35.80
8565;DHT22;4320;51.498;6.556;2023-02-15T04:56:36;4.70;36.70
8565;DHT22;4320;51.498;6.556;2023-02-15T04:59:04;4.60;39.00
8565;DHT22;4320;51.498;6.556;2023-02-15T05:01:29;4.60;41.90
8565;DHT22;4320;51.498;6.556;2023-02-15T05:03:56;4.60;41.40
8565;DHT22;4320;51.498;6.556;2023-02-15T05:06:21;4.60;41.30
8565;DHT22;4320;51.498;6.556;2023-02-15T05:08:47;4.60;42.90
8565;DHT22;4320;51.498;6.556;2023-02-15T05:11:13;4.60;44.90
8565;DHT22;4320;51.498;6.556;2023-02-15T05:13:38;4.70;42.90
8565;DHT22;4320;51.498;6.556;2023-02-15T05:16:04;4.60;43.50
8565;DHT22;4320;51.498;6.556;2023-02-15T05:18:30;4.60;43.80
8565;DHT22;4320;51.498;6.556;2023-02-15T05:20:55;4.60;43.40
8565;DHT22;4320;51.498;6.556;2023-02-15T05:23:21;4.70;45.10
8565;DHT22;4320;51.498;6.556;2023-02-15T05:25:48;4.60;44.40
8565;DHT22;4320;51.498;6.556;2023-02-15T05:28:33;4.60;44.50
8565;DHT22;4320;51.498;6.556;2023-02-15T05:31:15;4.70;42.90
8565;DHT22;4320;51.498;6.556;2023-02-15T05:33:42;4.60;43.20
8565;DHT22;4320;51.498;6.556;2023-02-15T05:36:08;4.60;45.50
8565;DHT22;4320;51.498;6.556;2023-02-15T05:38:34;4.60;45.60
8565;DHT22;4320;51.498;6.556;2023-02-15T05:41:02;4.70;45.00
8565;DHT22;4320;51.498;6.556;2023-02-15T05:43:28;4.60;44.70
8565;DHT22;4320;51.498;6.556;2023-02-15T05:45:54;4.60;46.00
8565;DHT22;4320;51.498;6.556;2023-02-15T05:48:22;4.60;44.90
8565;DHT22;4320;51.498;6.556;2023-02-15T05:51:10;4.60;45.10
8565;DHT22;4320;51.498;6.556;2023-02-15T05:53:39;4.70;44.80
8565;DHT22;4320;51.498;6.556;2023-02-15T05:56:06;4.60;44.00
8565;DHT22;4320;51.498;6.556;2023-02-15T05:58:35;4.60;43.00
8565;DHT22;4320;51.498;6.556;2023-02-15T06:01:14;4.60;43.70
8565;DHT22;4320;51.498;6.556;2023-02-15T06:03:41;4.70;42.80
8565;DHT22;4320;51.498;6.556;2023-02-15T06:06:07;4.60;41.70
8565;DHT22;4320;51.498;6.556;2023-02-15T06:08:33;4.50;43.00
8565;DHT22;4320;51.498;6.556;2023-02-15T06:10:59;4.50;44.30
8565;DHT22;4320;51.498;6.556;2023-02-15T06:13:25;4.50;45.80
8565;DHT22;4320;51.498;6.556;2023-02-15T06:15:51;4.40;45.10
8565;DHT22;4320;51.498;6.556;2023-02-15T06:18:16;4.40;44.80
8565;DHT22;4320;51.498;6.556;2023-02-15T06:20:42;4.40;45.10
8565;DHT22;4320;51.498;6.556;2023-02-15T06:23:10;4.40;46.00
8565;DHT22;4320;51.498;6.556;2023-02-15T06:25:35;4.40;45.80
8565;DHT22;4320;51.498;6.556;2023-02-15T06:28:01;4.40;47.70
8565;DHT22;4320;51.498;6.556;2023-02-15T06:30:27;4.30;48.40
8565;DHT22;4320;51.498;6.556;2023-02-15T06:32:52;4.30;50.00
8565;DHT22;4320;51.498;6.556;2023-02-15T06:35:18;4.30;49.50
8565;DHT22;4320;51.498;6.556;2023-02-15T06:37:45;4.40;48.00
8565;DHT22;4320;51.498;6.556;2023-02-15T06:40:12;4.40;48.50
8565;DHT22;4320;51.498;6.556;2023-02-15T06:42:37;4.30;47.80
8565;DHT22;4320;51.498;6.556;2023-02-15T06:45:04;4.30;48.30
8565;DHT22;4320;51.498;6.556;2023-02-15T06:47:29;4.30;50.00
8565;DHT22;4320;51.498;6.556;2023-02-15T06:49:56;4.30;50.00
8565;DHT22;4320;51.498;6.556;2023-02-15T06:52:23;4.30;48.90
8565;DHT22;4320;51.498;6.556;2023-02-15T06:54:48;4.30;54.00
8565;DHT22;4320;51.498;6.556;2023-02-15T06:57:14;4.30;49.90
8565;DHT22;4320;51.498;6.556;2023-02-15T06:59:40;4.30;50.10
8565;DHT22;4320;51.498;6.556;2023-02-15T07:02:05;4.30;50.50
8565;DHT22;4320;51.498;6.556;2023-02-15T07:04:31;4.30;49.90
8565;DHT22;4320;51.498;6.556;2023-02-15T07:06:57;4.20;50.30
8565;DHT22;4320;51.498;6.556;2023-02-15T07:09:23;4.20;49.40
8565;DHT22;4320;51.498;6.556;2023-02-15T07:11:49;4.30;51.20
8565;DHT22;4320;51.498;6.556;2023-02-15T07:14:33;4.30;51.00
8565;DHT22;4320;51.498;6.556;2023-02-15T07:16:59;4.30;51.80
8565;DHT22;4320;51.498;6.556;2023-02-15T07:19:25;4.30;50.70
8565;DHT22;4320;51.498;6.556;2023-02-15T07:21:50;4.30;50.70
8565;DHT22;4320;51.498;6.556;2023-02-15T07:24:16;4.30;52.60
8565;DHT22;4320;51.498;6.556;2023-02-15T07:26:42;4.30;51.30
8565;DHT22;4320;51.498;6.556;2023-02-15T07:29:07;4.40;52.10
8565;DHT22;4320;51.498;6.556;2023-02-15T07:31:33;4.50;51.50
8565;DHT22;4320;51.498;6.556;2023-02-15T07:33:58;4.60;48.90
8565;DHT22;4320;51.498;6.556;2023-02-15T07:36:24;4.60;46.90
8565;DHT22;4320;51.498;6.556;2023-02-15T07:38:50;4.60;49.40
8565;DHT22;4320;51.498;6.556;2023-02-15T07:41:15;4.70;44.50
8565;DHT22;4320;51.498;6.556;2023-02-15T07:43:43;4.80;43.50
8565;DHT22;4320;51.498;6.556;2023-02-15T07:46:11;5.00;41.70
8565;DHT22;4320;51.498;6.556;2023-02-15T07:48:38;5.30;39.90
8565;DHT22;4320;51.498;6.556;2023-02-15T07:51:06;5.60;36.50
8565;DHT22;4320;51.498;6.556;2023-02-15T07:53:32;6.00;31.20
8565;DHT22;4320;51.498;6.556;2023-02-15T07:56:02;6.30;26.30
8565;DHT22;4320;51.498;6.556;2023-02-15T07:58:28;6.70;19.70
8565;DHT22;4320;51.498;6.556;2023-02-15T08:01:30;7.00;15.30
8565;DHT22;4320;51.498;6.556;2023-02-15T08:03:56;7.20;8.10
8565;DHT22;4320;51.498;6.556;2023-02-15T08:06:25;7.70;2.40
8565;DHT22;4320;51.498;6.556;2023-02-15T08:08:51;8.30;1.00
8565;DHT22;4320;51.498;6.556;2023-02-15T08:11:23;8.80;1.00
8565;DHT22;4320;51.498;6.556;2023-02-15T08:16:37;9.70;1.00
8565;DHT22;4320;51.498;6.556;2023-02-15T08:19:17;10.40;1.00
8565;DHT22;4320;51.498;6.556;2023-02-15T08:21:45;11.00;1.00
8565;DHT22;4320;51.498;6.556;2023-02-15T08:24:12;11.10;1.00
8565;DHT22;4320;51.498;6.556;2023-02-15T08:26:39;11.40;1.00
8565;DHT22;4320;51.498;6.556;2023-02-15T08:29:06;11.60;1.00
8565;DHT22;4320;51.498;6.556;2023-02-15T08:31:33;12.10;1.00
8565;DHT22;4320;51.498;6.556;2023-02-15T08:33:59;12.40;1.00
8565;DHT22;4320;51.498;6.556;2023-02-15T08:36:27;12.80;1.00
8565;DHT22;4320;51.498;6.556;2023-02-15T08:38:54;13.30;1.00
8565;DHT22;4320;51.498;6.556;2023-02-15T08:41:23;13.40;1.00
8565;DHT22;4320;51.498;6.556;2023-02-15T08:44:00;13.50;1.00
8565;DHT22;4320;51.498;6.556;2023-02-15T08:46:28;13.80;1.00
8565;DHT22;4320;51.498;6.556;2023-02-15T08:48:54;14.00;1.00
8565;DHT22;4320;51.498;6.556;2023-02-15T08:51:22;14.10;1.00
8565;DHT22;4320;51.498;6.556;2023-02-15T08:53:52;13.60;1.00
8565;DHT22;4320;51.498;6.556;2023-02-15T08:56:21;12.50;1.00
8565;DHT22;4320;51.498;6.556;2023-02-15T08:58:46;11.50;1.00
8565;DHT22;4320;51.498;6.556;2023-02-15T09:01:17;10.20;1.00
8565;DHT22;4320;51.498;6.556;2023-02-15T09:03:44;9.60;1.00
8565;DHT22;4320;51.498;6.556;2023-02-15T09:06:11;9.20;1.00
8565;DHT22;4320;51.498;6.556;2023-02-15T09:08:37;9.00;1.00
8565;DHT22;4320;51.498;6.556;2023-02-15T09:11:09;8.70;1.00
8565;DHT22;4320;51.498;6.556;2023-02-15T09:13:36;8.60;1.00
8565;DHT22;4320;51.498;6.556;2023-02-15T09:16:06;8.70;1.00
8565;DHT22;4320;51.498;6.556;2023-02-15T09:18:34;8.70;1.00
8565;DHT22;4320;51.498;6.556;2023-02-15T09:21:14;8.80;1.00
8565;DHT22;4320;51.498;6.556;2023-02-15T09:23:40;9.00;1.00
8565;DHT22;4320;51.498;6.556;2023-02-15T09:26:15;9.10;1.00
8565;DHT22;4320;51.498;6.556;2023-02-15T09:28:41;9.30;1.00
8565;DHT22;4320;51.498;6.556;2023-02-15T09:31:27;9.90;1.00
8565;DHT22;4320;51.498;6.556;2023-02-15T09:33:53;10.80;1.00
8565;DHT22;4320;51.498;6.556;2023-02-15T09:36:29;11.40;1.00
8565;DHT22;4320;51.498;6.556;2023-02-15T09:39:13;12.10;1.00
8565;DHT22;4320;51.498;6.556;2023-02-15T10:04:48;16.20;1.00
8565;DHT22;4320;51.498;6.556;2023-02-15T10:10:41;16.20;1.00
8565;DHT22;4320;51.498;6.556;2023-02-15T10:18:55;15.60;1.00
8565;DHT22;4320;51.498;6.556;2023-02-15T10:21:50;15.30;1.00
8565;DHT22;4320;51.498;6.556;2023-02-15T10:27:13;14.90;1.00
8565;DHT22;4320;51.498;6.556;2023-02-15T10:30:05;14.70;1.00
8565;DHT22;4320;51.498;6.556;2023-02-15T10:32:59;13.90;1.00
8565;DHT22;4320;51.498;6.556;2023-02-15T10:40:57;13.00;1.00
8565;DHT22;4320;51.498;6.556;2023-02-15T10:43:58;13.20;1.00
8565;DHT22;4320;51.498;6.556;2023-02-15T10:58:06;13.40;1.00
8565;DHT22;4320;51.498;6.556;2023-02-15T11:00:23;13.30;1.00
8565;DHT22;4320;51.498;6.556;2023-02-15T11:03:02;13.50;1.00
8565;DHT22;4320;51.498;6.556;2023-02-15T11:06:09;13.90;1.00
8565;DHT22;4320;51.498;6.556;2023-02-15T11:08:42;14.00;1.00
8565;DHT22;4320;51.498;6.556;2023-02-15T11:11:31;13.90;1.00
8565;DHT22;4320;51.498;6.556;2023-02-15T11:14:04;14.20;1.00
8565;DHT22;4320;51.498;6.556;2023-02-15T11:16:41;14.30;1.00
8565;DHT22;4320;51.498;6.556;2023-02-15T11:19:33;14.10;1.00
8565;DHT22;4320;51.498;6.556;2023-02-15T11:22:05;13.90;1.00
8565;DHT22;4320;51.498;6.556;2023-02-15T11:24:33;14.00;1.00
8565;DHT22;4320;51.498;6.556;2023-02-15T11:27:04;14.20;1.00
8565;DHT22;4320;51.498;6.556;2023-02-15T11:29:37;14.10;1.00
8565;DHT22;4320;51.498;6.556;2023-02-15T11:32:25;14.40;1.00
8565;DHT22;4320;51.498;6.556;2023-02-15T11:40:36;14.80;1.00
8565;DHT22;4320;51.498;6.556;2023-02-15T11:43:16;14.70;1.00
8565;DHT22;4320;51.498;6.556;2023-02-15T11:45:44;14.40;1.00
8565;DHT22;4320;51.498;6.556;2023-02-15T11:48:12;14.10;1.00
8565;DHT22;4320;51.498;6.556;2023-02-15T11:50:38;14.10;1.00
8565;DHT22;4320;51.498;6.556;2023-02-15T11:53:18;14.00;1.00
8565;DHT22;4320;51.498;6.556;2023-02-15T11:55:48;13.80;1.00
8565;DHT22;4320;51.498;6.556;2023-02-15T12:01:10;13.80;1.00
8565;DHT22;4320;51.498;6.556;2023-02-15T12:03:47;13.80;1.00
8565;DHT22;4320;51.498;6.556;2023-02-15T12:06:36;13.90;1.00
8565;DHT22;4320;51.498;6.556;2023-02-15T12:11:40;13.60;1.00
8565;DHT22;4320;51.498;6.556;2023-02-15T12:14:11;13.80;1.00
8565;DHT22;4320;51.498;6.556;2023-02-15T12:16:51;14.00;1.00
8565;DHT22;4320;51.498;6.556;2023-02-15T12:21:54;14.00;1.00
8565;DHT22;4320;51.498;6.556;2023-02-15T12:24:26;13.90;1.00
8565;DHT22;4320;51.498;6.556;2023-02-15T12:27:03;13.80;1.00
8565;DHT22;4320;51.498;6.556;2023-02-15T12:29:41;13.80;1.00
8565;DHT22;4320;51.498;6.556;2023-02-15T12:32:22;13.80;1.00
8565;DHT22;4320;51.498;6.556;2023-02-15T12:34:49;13.60;1.00
8565;DHT22;4320;51.498;6.556;2023-02-15T12:37:27;13.50;1.00
8565;DHT22;4320;51.498;6.556;2023-02-15T12:39:56;13.40;1.00
8565;DHT22;4320;51.498;6.556;2023-02-15T12:42:23;13.50;1.00
8565;DHT22;4320;51.498;6.556;2023-02-15T12:44:59;13.60;1.00
8565;DHT22;4320;51.498;6.556;2023-02-15T12:47:26;13.60;1.00
8565;DHT22;4320;51.498;6.556;2023-02-15T12:50:13;13.60;1.00
8565;DHT22;4320;51.498;6.556;2023-02-15T12:52:47;13.60;1.00
8565;DHT22;4320;51.498;6.556;2023-02-15T12:57:47;13.60;1.00
8565;DHT22;4320;51.498;6.556;2023-02-15T13:02:53;13.80;1.00
8565;DHT22;4320;51.498;6.556;2023-02-15T13:05:29;13.70;1.00
8565;DHT22;4320;51.498;6.556;2023-02-15T13:08:17;13.60;1.00
8565;DHT22;4320;51.498;6.556;2023-02-15T13:11:06;13.60;1.00
8565;DHT22;4320;51.498;6.556;2023-02-15T13:13:38;13.70;1.00
8565;DHT22;4320;51.498;6.556;2023-02-15T13:16:13;13.70;1.00
8565;DHT22;4320;51.498;6.556;2023-02-15T13:18:45;13.70;1.00
8565;DHT22;4320;51.498;6.556;2023-02-15T13:21:18;13.80;1.00
8565;DHT22;4320;51.498;6.556;2023-02-15T13:23:48;13.80;1.00
8565;DHT22;4320;51.498;6.556;2023-02-15T13:26:18;13.70;1.00
8565;DHT22;4320;51.498;6.556;2023-02-15T13:28:47;13.60;1.00
8565;DHT22;4320;51.498;6.556;2023-02-15T13:31:15;13.70;1.00
8565;DHT22;4320;51.498;6.556;2023-02-15T13:33:51;13.80;1.00
8565;DHT22;4320;51.498;6.556;2023-02-15T13:36:30;13.90;1.00
8565;DHT22;4320;51.498;6.556;2023-02-15T13:39:17;14.00;1.00
8565;DHT22;4320;51.498;6.556;2023-02-15T13:52:22;14.40;1.00
8565;DHT22;4320;51.498;6.556;2023-02-15T14:00:52;14.20;1.00
8565;DHT22;4320;51.498;6.556;2023-02-15T14:03:51;14.30;1.00
8565;DHT22;4320;51.498;6.556;2023-02-15T14:09:50;14.30;1.00
8565;DHT22;4320;51.498;6.556;2023-02-15T14:12:46;14.30;1.00
8565;DHT22;4320;51.498;6.556;2023-02-15T14:20:54;14.10;1.00
8565;DHT22;4320;51.498;6.556;2023-02-15T14:26:04;13.90;1.00
8565;DHT22;4320;51.498;6.556;2023-02-15T14:28:46;13.90;1.00
8565;DHT22;4320;51.498;6.556;2023-02-15T14:31:15;13.80;1.00
8565;DHT22;4320;51.498;6.556;2023-02-15T14:33:53;13.80;1.00
8565;DHT22;4320;51.498;6.556;2023-02-15T14:36:20;13.80;1.00
8565;DHT22;4320;51.498;6.556;2023-02-15T14:39:08;13.80;1.00
8565;DHT22;4320;51.498;6.556;2023-02-15T14:42:07;13.80;1.00
8565;DHT22;4320;51.498;6.556;2023-02-15T14:44:45;13.70;1.00
8565;DHT22;4320;51.498;6.556;2023-02-15T14:47:19;13.70;1.00
8565;DHT22;4320;51.498;6.556;2023-02-15T14:49:47;13.60;1.00
8565;DHT22;4320;51.498;6.556;2023-02-15T14:52:13;13.60;1.00
8565;DHT22;4320;51.498;6.556;2023-02-15T15:05:35;13.60;1.00
8565;DHT22;4320;51.498;6.556;2023-02-15T15:08:02;13.50;1.00
8565;DHT22;4320;51.498;6.556;2023-02-15T15:10:46;13.50;1.00
8565;DHT22;4320;51.498;6.556;2023-02-15T15:15:57;13.50;1.00
8565;DHT22;4320;51.498;6.556;2023-02-15T15:18:47;13.50;1.00
8565;DHT22;4320;51.498;6.556;2023-02-15T15:36:06;13.40;1.00
8565;DHT22;4320;51.498;6.556;2023-02-15T15:50:17;13.20;1.00
8565;DHT22;4320;51.498;6.556;2023-02-15T15:52:49;13.20;1.00
8565;DHT22;4320;51.498;6.556;2023-02-15T15:55:19;13.10;1.00
8565;DHT22;4320;51.498;6.556;2023-02-15T15:57:48;13.10;1.00
8565;DHT22;4320;51.498;6.556;2023-02-15T16:02:52;13.00;1.00
8565;DHT22;4320;51.498;6.556;2023-02-15T16:05:17;13.00;1.00
8565;DHT22;4320;51.498;6.556;2023-02-15T16:07:43;12.90;1.00
8565;DHT22;4320;51.498;6.556;2023-02-15T16:10:24;12.90;1.00
8565;DHT22;4320;51.498;6.556;2023-02-15T16:12:50;12.80;1.00
8565;DHT22;4320;51.498;6.556;2023-02-15T16:15:46;12.70;1.00
8565;DHT22;4320;51.498;6.556;2023-02-15T16:18:19;12.70;1.00
8565;DHT22;4320;51.498;6.556;2023-02-15T16:20:59;12.60;1.00
8565;DHT22;4320;51.498;6.556;2023-02-15T16:26:31;12.50;1.00
8565;DHT22;4320;51.498;6.556;2023-02-15T16:29:00;12.40;1.00
8565;DHT22;4320;51.498;6.556;2023-02-15T16:31:26;12.40;1.00
8565;DHT22;4320;51.498;6.556;2023-02-15T16:33:53;12.30;1.00
8565;DHT22;4320;51.498;6.556;2023-02-15T16:36:25;12.30;1.00
8565;DHT22;4320;51.498;6.556;2023-02-15T16:41:26;12.20;1.00
8565;DHT22;4320;51.498;6.556;2023-02-15T16:43:54;12.20;1.00
8565;DHT22;4320;51.498;6.556;2023-02-15T16:46:26;12.10;1.00
8565;DHT22;4320;51.498;6.556;2023-02-15T16:48:55;12.00;1.00
8565;DHT22;4320;51.498;6.556;2023-02-15T16:51:25;11.90;1.00
8565;DHT22;4320;51.498;6.556;2023-02-15T16:53:52;11.90;1.00
8565;DHT22;4320;51.498;6.556;2023-02-15T16:56:23;11.80;1.00
8565;DHT22;4320;51.498;6.556;2023-02-15T16:58:51;11.80;1.00
8565;DHT22;4320;51.498;6.556;2023-02-15T17:01:20;11.80;1.00
8565;DHT22;4320;51.498;6.556;2023-02-15T17:03:50;11.80;1.00
8565;DHT22;4320;51.498;6.556;2023-02-15T17:06:26;11.70;1.00
8565;DHT22;4320;51.498;6.556;2023-02-15T17:09:03;11.70;1.00
8565;DHT22;4320;51.498;6.556;2023-02-15T17:11:35;11.70;1.00
8565;DHT22;4320;51.498;6.556;2023-02-15T17:16:36;11.60;1.00
8565;DHT22;4320;51.498;6.556;2023-02-15T17:19:14;11.60;1.00
8565;DHT22;4320;51.498;6.556;2023-02-15T17:21:46;11.50;1.00
8565;DHT22;4320;51.498;6.556;2023-02-15T17:24:25;11.50;1.00
8565;DHT22;4320;51.498;6.556;2023-02-15T17:26:55;11.50;1.00
8565;DHT22;4320;51.498;6.556;2023-02-15T17:29:33;11.40;1.00
8565;DHT22;4320;51.498;6.556;2023-02-15T17:32:00;11.40;1.00
8565;DHT22;4320;51.498;6.556;2023-02-15T17:40:23;11.30;1.00
8565;DHT22;4320;51.498;6.556;2023-02-15T17:42:49;11.30;1.00
8565;DHT22;4320;51.498;6.556;2023-02-15T17:45:16;11.30;1.00
8565;DHT22;4320;51.498;6.556;2023-02-15T17:47:42;11.30;1.00
8565;DHT22;4320;51.498;6.556;2023-02-15T17:50:10;11.20;1.00
8565;DHT22;4320;51.498;6.556;2023-02-15T17:52:41;11.20;1.00
8565;DHT22;4320;51.498;6.556;2023-02-15T17:55:15;11.20;1.00
8565;DHT22;4320;51.498;6.556;2023-02-15T17:58:01;11.10;1.00
8565;DHT22;4320;51.498;6.556;2023-02-15T18:00:27;11.10;1.00
8565;DHT22;4320;51.498;6.556;2023-02-15T18:03:12;11.10;1.00
8565;DHT22;4320;51.498;6.556;2023-02-15T18:05:57;11.00;1.00
8565;DHT22;4320;51.498;6.556;2023-02-15T18:08:41;11.00;1.00
8565;DHT22;4320;51.498;6.556;2023-02-15T18:11:26;10.90;1.00
8565;DHT22;4320;51.498;6.556;2023-02-15T18:14:09;10.90;1.00
8565;DHT22;4320;51.498;6.556;2023-02-15T18:16:38;10.90;1.00
8565;DHT22;4320;51.498;6.556;2023-02-15T18:19:10;10.80;1.00
8565;DHT22;4320;51.498;6.556;2023-02-15T18:21:38;10.80;1.00
8565;DHT22;4320;51.498;6.556;2023-02-15T18:24:03;10.80;1.00
8565;DHT22;4320;51.498;6.556;2023-02-15T18:26:29;10.80;1.00
8565;DHT22;4320;51.498;6.556;2023-02-15T18:28:55;10.70;1.00
8565;DHT22;4320;51.498;6.556;2023-02-15T18:31:21;10.70;1.00
8565;DHT22;4320;51.498;6.556;2023-02-15T18:33:51;10.70;1.00
8565;DHT22;4320;51.498;6.556;2023-02-15T18:36:27;10.70;1.00
8565;DHT22;4320;51.498;6.556;2023-02-15T18:38:54;10.60;1.00
8565;DHT22;4320;51.498;6.556;2023-02-15T18:41:21;10.60;1.00
8565;DHT22;4320;51.498;6.556;2023-02-15T18:43:48;10.60;1.00
8565;DHT22;4320;51.498;6.556;2023-02-15T18:46:15;10.60;1.00
8565;DHT22;4320;51.498;6.556;2023-02-15T18:48:41;10.50;1.00
8565;DHT22;4320;51.498;6.556;2023-02-15T18:51:21;10.50;1.00
8565;DHT22;4320;51.498;6.556;2023-02-15T18:53:50;10.50;1.00
8565;DHT22;4320;51.498;6.556;2023-02-15T18:56:19;10.50;1.00
8565;DHT22;4320;51.498;6.556;2023-02-15T18:58:45;10.40;1.00
8565;DHT22;4320;51.498;6.556;2023-02-15T19:01:16;10.40;1.00
8565;DHT22;4320;51.498;6.556;2023-02-15T19:03:46;10.40;1.00
8565;DHT22;4320;51.498;6.556;2023-02-15T19:06:14;10.30;1.00
8565;DHT22;4320;51.498;6.556;2023-02-15T19:08:45;10.30;1.00
8565;DHT22;4320;51.498;6.556;2023-02-15T19:11:20;10.20;1.00
8565;DHT22;4320;51.498;6.556;2023-02-15T19:13:48;10.10;1.00
8565;DHT22;4320;51.498;6.556;2023-02-15T19:16:28;10.10;1.00
8565;DHT22;4320;51.498;6.556;2023-02-15T19:18:54;10.10;1.00
8565;DHT22;4320;51.498;6.556;2023-02-15T19:21:19;10.10;1.00
8565;DHT22;4320;51.498;6.556;2023-02-15T19:23:50;10.00;1.00
8565;DHT22;4320;51.498;6.556;2023-02-15T19:26:17;10.00;1.00
8565;DHT22;4320;51.498;6.556;2023-02-15T19:28:42;9.90;1.00
8565;DHT22;4320;51.498;6.556;2023-02-15T19:31:11;9.90;1.00
8565;DHT22;4320;51.498;6.556;2023-02-15T19:33:36;9.90;1.00
8565;DHT22;4320;51.498;6.556;2023-02-15T19:36:04;9.90;1.00
8565;DHT22;4320;51.498;6.556;2023-02-15T19:38:32;9.80;1.00
8565;DHT22;4320;51.498;6.556;2023-02-15T19:41:06;9.80;1.00
8565;DHT22;4320;51.498;6.556;2023-02-15T19:43:33;9.80;1.00
8565;DHT22;4320;51.498;6.556;2023-02-15T19:45:59;9.80;1.00
8565;DHT22;4320;51.498;6.556;2023-02-15T19:48:24;9.80;1.00
8565;DHT22;4320;51.498;6.556;2023-02-15T19:50:50;9.70;1.00
8565;DHT22;4320;51.498;6.556;2023-02-15T19:53:22;9.70;1.00
8565;DHT22;4320;51.498;6.556;2023-02-15T19:55:49;9.70;1.00